createdAt,value
2023-02-13T07:57:16.746Z,74.24
2023-02-13T07:59:45.605Z,73.48
2023-02-13T08:02:15.341Z,73.27
2023-02-13T08:04:46.322Z,73.15
2023-02-13T08:07:17.135Z,72.72
2023-02-13T08:10:05.996Z,72.03
2023-02-13T08:12:36.046Z,72.06
2023-02-13T08:15:05.479Z,71.89
2023-02-13T08:17:32.771Z,71.44
2023-02-13T08:20:00.148Z,71.22
2023-02-13T08:22:27.509Z,70.90
2023-02-13T08:24:54.822Z,70.85
2023-02-13T08:27:23.053Z,70.19
2023-02-13T08:29:53.834Z,69.94
2023-02-13T08:32:21.181Z,69.76
2023-02-13T08:34:48.518Z,69.50
2023-02-13T08:37:16.732Z,69.55
2023-02-13T08:39:44.698Z,69.20
2023-02-13T08:42:15.674Z,69.09
2023-02-13T08:44:44.285Z,68.81
2023-02-13T08:47:11.869Z,68.65
2023-02-13T08:49:39.193Z,68.09
2023-02-13T08:52:06.556Z,67.49
2023-02-13T08:54:36.152Z,67.55
2023-02-13T08:57:03.982Z,66.74
2023-02-13T08:59:31.397Z,66.50
2023-02-13T09:01:58.964Z,66.02
2023-02-13T09:04:26.353Z,65.78
2023-02-13T09:06:53.912Z,65.29
2023-02-13T09:09:21.313Z,64.99
2023-02-13T09:11:48.682Z,64.71
2023-02-13T09:14:16.026Z,64.18
2023-02-13T09:16:43.387Z,63.50
2023-02-13T09:19:10.714Z,63.82
2023-02-13T09:21:38.028Z,63.39
2023-02-13T09:24:10.456Z,62.40
2023-02-13T09:26:37.934Z,61.74
2023-02-13T09:29:05.262Z,61.34
2023-02-13T09:31:32.662Z,60.68
2023-02-13T09:34:00.030Z,59.80
2023-02-13T09:36:27.360Z,59.18
2023-02-13T09:38:57.691Z,59.07
2023-02-13T09:41:40.973Z,57.93
2023-02-13T09:44:44.710Z,57.73
2023-02-13T09:47:37.233Z,57.54
2023-02-13T09:50:28.634Z,56.80
2023-02-13T09:52:58.494Z,56.69
2023-02-13T09:56:16.380Z,55.72
2023-02-13T09:59:12.504Z,55.78
2023-02-13T10:01:50.541Z,55.39
2023-02-13T10:05:02.087Z,54.83
2023-02-13T10:08:12.819Z,53.63
2023-02-13T10:11:41.138Z,53.17
2023-02-13T10:15:05.422Z,51.94
2023-02-13T10:18:06.468Z,51.74
2023-02-13T10:20:52.768Z,51.33
2023-02-13T10:23:50.180Z,51.29
2023-02-13T10:26:42.709Z,50.34
2023-02-13T10:29:42.513Z,49.80
2023-02-13T10:32:17.234Z,49.85
2023-02-13T10:34:47.091Z,48.89
2023-02-13T10:37:21.421Z,47.89
2023-02-13T10:39:54.124Z,48.94
2023-02-13T10:42:42.130Z,47.82
2023-02-13T10:46:31.382Z,47.41
2023-02-13T10:49:17.837Z,46.49
2023-02-13T10:52:33.713Z,45.93
2023-02-13T10:55:30.570Z,47.07
2023-02-13T10:58:20.850Z,45.06
2023-02-13T11:01:13.598Z,45.02
2023-02-13T11:03:41.209Z,45.16
2023-02-13T11:06:18.142Z,44.43
2023-02-13T11:08:48.214Z,45.01
2023-02-13T11:11:39.066Z,43.71
2023-02-13T11:14:20.694Z,43.39
2023-02-13T11:17:09.740Z,42.93
2023-02-13T11:19:56.157Z,41.77
2023-02-13T11:22:42.709Z,41.47
2023-02-13T11:25:30.110Z,41.83
2023-02-13T11:28:21.208Z,41.33
2023-02-13T11:30:49.081Z,41.36
2023-02-13T11:33:28.654Z,40.11
2023-02-13T11:36:31.872Z,39.82
2023-02-13T11:39:17.757Z,40.26
2023-02-13T11:41:50.884Z,39.39
2023-02-13T11:44:31.285Z,38.90
2023-02-13T11:47:03.225Z,39.87
2023-02-13T11:49:39.461Z,38.91
2023-02-13T11:52:31.027Z,38.34
2023-02-13T11:55:31.448Z,38.21
2023-02-13T11:58:12.165Z,38.21
2023-02-13T12:00:42.494Z,37.15
2023-02-13T12:03:31.980Z,37.15
2023-02-13T12:06:15.869Z,37.73
2023-02-13T12:08:49.288Z,37.49
2023-02-13T12:11:42.190Z,36.73
2023-02-13T12:14:28.573Z,37.35
2023-02-13T12:17:29.211Z,36.73
2023-02-13T12:19:58.304Z,37.01
2023-02-13T12:22:41.962Z,36.34
2023-02-13T12:25:33.412Z,35.96
2023-02-13T12:28:43.931Z,34.80
2023-02-13T12:32:20.800Z,35.08
2023-02-13T12:35:34.028Z,34.67
2023-02-13T12:39:13.933Z,34.72
2023-02-13T12:42:51.947Z,33.73
2023-02-13T12:45:53.797Z,34.39
2023-02-13T12:48:58.429Z,33.09
2023-02-13T12:52:13.516Z,33.73
2023-02-13T12:55:27.344Z,33.69
2023-02-13T12:58:25.507Z,33.38
2023-02-13T13:01:57.836Z,33.02
2023-02-13T13:05:05.102Z,32.64
2023-02-13T13:07:54.777Z,33.19
2023-02-13T13:11:20.558Z,33.12
2023-02-13T13:14:42.228Z,32.58
2023-02-13T13:17:58.733Z,32.87
2023-02-13T13:20:52.338Z,32.20
2023-02-13T13:23:41.670Z,32.51
2023-02-13T13:26:43.677Z,32.70
2023-02-13T13:29:36.544Z,33.32
2023-02-13T13:32:13.749Z,33.33
2023-02-13T13:34:41.504Z,34.05
2023-02-13T13:37:48.101Z,33.44
2023-02-13T13:40:58.124Z,34.29
2023-02-13T13:44:03.191Z,35.13
2023-02-13T13:47:05.770Z,34.59
2023-02-13T13:49:58.585Z,35.55
2023-02-13T13:52:39.876Z,35.21
2023-02-13T13:55:29.573Z,35.66
2023-02-13T13:58:02.808Z,36.26
2023-02-13T14:00:31.378Z,36.90
2023-02-13T14:03:34.629Z,36.46
2023-02-13T14:06:22.026Z,37.47
2023-02-13T14:08:49.637Z,38.08
2023-02-13T14:11:47.249Z,38.53
2023-02-13T14:14:30.587Z,39.42
2023-02-13T14:17:04.220Z,40.00
2023-02-13T14:19:40.056Z,40.10
2023-02-13T14:22:19.482Z,39.62
2023-02-13T14:24:55.678Z,40.47
2023-02-13T14:27:40.784Z,40.10
2023-02-13T14:30:40.393Z,40.71
2023-02-13T14:33:31.755Z,40.46
2023-02-13T14:36:23.148Z,40.66
2023-02-13T14:39:20.969Z,40.58
2023-02-13T14:41:54.157Z,40.22
2023-02-13T14:44:50.043Z,40.50
2023-02-13T14:47:42.917Z,40.74
2023-02-13T14:50:45.884Z,41.26
2023-02-13T14:53:32.825Z,41.37
2023-02-13T14:56:13.739Z,41.36
2023-02-13T14:59:11.010Z,41.49
2023-02-13T15:02:31.115Z,41.82
2023-02-13T15:05:20.196Z,41.81
2023-02-13T15:08:28.404Z,41.95
2023-02-13T15:10:57.712Z,42.90
2023-02-13T15:13:37.459Z,42.38
2023-02-13T15:16:12.807Z,42.26
2023-02-13T15:18:52.823Z,42.61
2023-02-13T15:21:33.081Z,42.88
2023-02-13T15:24:00.467Z,43.35
2023-02-13T15:26:29.207Z,43.48
2023-02-13T15:29:27.924Z,43.42
2023-02-13T15:31:59.755Z,43.46
2023-02-13T15:34:36.078Z,43.84
2023-02-13T15:37:03.936Z,43.55
2023-02-13T15:39:32.849Z,43.45
2023-02-13T15:42:03.177Z,43.90
2023-02-13T15:44:38.543Z,43.67
2023-02-13T15:47:17.402Z,42.51
2023-02-13T15:49:47.816Z,42.37
2023-02-13T15:52:37.875Z,42.52
2023-02-13T15:55:06.098Z,42.37
2023-02-13T15:57:34.091Z,42.68
2023-02-13T16:00:02.967Z,41.67
2023-02-13T16:02:47.525Z,41.07
2023-02-13T16:05:19.999Z,41.23
2023-02-13T16:07:59.162Z,40.89
2023-02-13T16:10:37.256Z,40.71
2023-02-13T16:13:16.588Z,41.26
2023-02-13T16:15:44.682Z,40.83
2023-02-13T16:18:21.017Z,40.75
2023-02-13T16:20:56.469Z,40.91
2023-02-13T16:23:24.252Z,41.29
2023-02-13T16:25:52.122Z,41.49
2023-02-13T16:28:27.338Z,41.94
2023-02-13T16:31:03.218Z,42.31
2023-02-13T16:33:33.993Z,42.96
2023-02-13T16:36:29.542Z,43.52
2023-02-13T16:38:56.867Z,43.29
2023-02-13T16:41:26.743Z,43.44
2023-02-13T16:43:58.204Z,44.13
2023-02-13T16:46:38.016Z,43.97
2023-02-13T16:49:09.602Z,44.31
2023-02-13T16:52:12.299Z,45.06
2023-02-13T16:54:59.898Z,44.77
2023-02-13T16:57:34.531Z,44.92
2023-02-13T17:00:24.474Z,44.98
2023-02-13T17:02:52.803Z,45.14
2023-02-13T17:05:24.662Z,45.52
2023-02-13T17:08:01.408Z,46.17
2023-02-13T17:10:37.495Z,46.08
2023-02-13T17:13:20.127Z,46.16
2023-02-13T17:15:48.866Z,46.55
2023-02-13T17:18:16.205Z,46.64
2023-02-13T17:20:45.180Z,47.34
2023-02-13T17:23:22.538Z,46.83
2023-02-13T17:25:52.682Z,47.03
2023-02-13T17:28:27.787Z,47.04
2023-02-13T17:30:58.740Z,46.83
2023-02-13T17:33:34.684Z,46.72
2023-02-13T17:36:01.975Z,47.46
2023-02-13T17:38:29.305Z,48.41
2023-02-13T17:40:56.993Z,47.99
2023-02-13T17:43:26.889Z,48.45
2023-02-13T17:45:54.237Z,48.87
2023-02-13T17:48:21.670Z,48.90
2023-02-13T17:50:51.110Z,48.81
2023-02-13T17:53:30.213Z,49.11
2023-02-13T17:55:58.586Z,49.15
2023-02-13T17:58:26.042Z,49.34
2023-02-13T18:00:53.773Z,49.58
2023-02-13T18:03:22.289Z,49.51
2023-02-13T18:05:50.355Z,50.21
2023-02-13T18:08:17.799Z,50.47
2023-02-13T18:10:45.110Z,50.76
2023-02-13T18:13:12.503Z,50.50
2023-02-13T18:15:44.851Z,50.47
2023-02-13T18:18:16.183Z,50.88
2023-02-13T18:20:44.729Z,51.09
2023-02-13T18:23:12.034Z,51.83
2023-02-13T18:25:39.353Z,51.89
2023-02-13T18:28:06.729Z,51.75
2023-02-13T18:30:34.161Z,52.11
2023-02-13T18:33:05.009Z,52.24
2023-02-13T18:35:33.388Z,52.39
2023-02-13T18:38:00.849Z,53.09
2023-02-13T18:40:28.148Z,52.99
2023-02-13T18:42:55.462Z,52.45
2023-02-13T18:45:22.742Z,53.44
2023-02-13T18:47:50.062Z,54.10
2023-02-13T18:50:17.478Z,54.05
2023-02-13T18:52:44.906Z,54.74
2023-02-13T18:55:12.264Z,54.46
2023-02-13T18:57:43.365Z,54.62
2023-02-13T19:00:13.979Z,54.87
2023-02-13T19:02:41.332Z,55.87
2023-02-13T19:05:08.882Z,55.83
2023-02-13T19:07:36.765Z,56.03
2023-02-13T19:10:04.486Z,56.48
2023-02-13T19:12:31.839Z,56.26
2023-02-13T19:14:59.151Z,56.20
2023-02-13T19:17:26.562Z,55.87
2023-02-13T19:19:55.788Z,56.73
2023-02-13T19:22:23.117Z,56.16
2023-02-13T19:24:50.912Z,56.86
2023-02-13T19:27:18.645Z,56.33
2023-02-13T19:29:47.535Z,56.77
2023-02-13T19:32:14.889Z,56.70
2023-02-13T19:34:42.443Z,57.64
2023-02-13T19:37:09.738Z,56.91
2023-02-13T19:39:37.125Z,57.27
2023-02-13T19:42:04.696Z,57.01
2023-02-13T19:44:31.998Z,57.60
2023-02-13T19:46:59.304Z,58.22
2023-02-13T19:49:26.611Z,57.96
2023-02-13T19:51:53.893Z,58.21
2023-02-13T19:54:22.064Z,58.58
2023-02-13T19:56:49.456Z,58.00
2023-02-13T19:59:16.762Z,58.30
2023-02-13T20:01:44.278Z,58.46
2023-02-13T20:04:12.155Z,58.84
2023-02-13T20:06:40.030Z,58.92
2023-02-13T20:09:14.471Z,58.71
2023-02-13T20:11:43.748Z,59.44
2023-02-13T20:14:15.134Z,59.82
2023-02-13T20:16:45.604Z,59.66
2023-02-13T20:19:13.922Z,59.82
2023-02-13T20:21:42.837Z,60.01
2023-02-13T20:24:11.973Z,59.31
2023-02-13T20:26:40.281Z,59.68
2023-02-13T20:29:09.358Z,59.19
2023-02-13T20:31:39.497Z,59.77
2023-02-13T20:34:08.088Z,59.70
2023-02-13T20:36:35.756Z,60.11
2023-02-13T20:39:07.655Z,60.72
2023-02-13T20:41:37.756Z,60.59
2023-02-13T20:44:11.775Z,60.48
2023-02-13T20:46:40.373Z,60.09
2023-02-13T20:49:10.058Z,59.93
2023-02-13T20:51:37.499Z,60.06
2023-02-13T20:54:05.858Z,60.68
2023-02-13T20:56:33.189Z,61.13
2023-02-13T20:59:02.573Z,60.51
2023-02-13T21:01:41.285Z,60.54
2023-02-13T21:04:11.272Z,60.47
2023-02-13T21:06:41.581Z,60.54
2023-02-13T21:09:09.938Z,60.93
2023-02-13T21:11:43.177Z,60.57
2023-02-13T21:14:14.360Z,60.62
2023-02-13T21:16:42.918Z,61.50
2023-02-13T21:19:19.229Z,60.55
2023-02-13T21:21:47.596Z,60.41
2023-02-13T21:24:22.777Z,61.92
2023-02-13T21:26:52.718Z,61.24
2023-02-13T21:29:20.292Z,60.95
2023-02-13T21:31:48.036Z,61.04
2023-02-13T21:34:17.953Z,61.85
2023-02-13T21:36:46.069Z,61.85
2023-02-13T21:39:13.842Z,61.64
2023-02-13T21:41:45.684Z,61.55
2023-02-13T21:44:15.491Z,61.89
2023-02-13T21:46:45.186Z,62.42
2023-02-13T21:49:18.079Z,61.99
2023-02-13T21:51:47.050Z,61.89
2023-02-13T21:54:14.938Z,62.08
2023-02-13T21:56:44.157Z,62.12
2023-02-13T21:59:16.727Z,62.31
2023-02-13T22:01:54.026Z,62.29
2023-02-13T22:04:21.887Z,62.47
2023-02-13T22:06:52.521Z,63.51
